Time;durP1;ratioP1;P1;durP2;ratioP2;P2;SDS_P1;SDS_P2;PMS_P1;PMS_P2;Temp;Humidity;BMP_temperature;BMP_pressure;BME280_temperature;BME280_humidity;BME280_pressure;Samples;Min_cycle;Max_cycle;Signal;HPM_P1;HPM_P2
2022/03/17 00:00:41;;;;;;;;;;;6.80;99.90;;;;;;5145389;27;19925;-69
2022/03/17 00:03:08;;;;;;;;;;;6.80;99.90;;;;;;5145541;27;20230;-68
2022/03/17 00:05:35;;;;;;;;;;;6.80;99.90;;;;;;5144759;27;19982;-69
2022/03/17 00:08:03;;;;;;;;;;;6.70;99.90;;;;;;5145440;27;19926;-69
2022/03/17 00:10:30;;;;;;;;;;;6.70;99.90;;;;;;5145426;27;19919;-69
2022/03/17 00:12:57;;;;;;;;;;;6.70;99.90;;;;;;5145435;27;19920;-69
2022/03/17 00:15:25;;;;;;;;;;;6.70;99.90;;;;;;5144731;27;20175;-70
2022/03/17 00:17:53;;;;;;;;;;;6.70;99.90;;;;;;5144425;27;19931;-69
2022/03/17 00:20:19;;;;;;;;;;;6.70;99.90;;;;;;5144186;27;19957;-71
2022/03/17 00:22:46;;;;;;;;;;;6.70;99.90;;;;;;5145375;27;19920;-70
2022/03/17 00:25:12;;;;;;;;;;;6.60;99.90;;;;;;5144212;27;19919;-72
2022/03/17 00:27:39;;;;;;;;;;;6.70;99.90;;;;;;5154733;27;19926;-68
2022/03/17 00:30:06;;;;;;;;;;;6.60;99.90;;;;;;5146085;27;19926;-70
2022/03/17 00:32:35;;;;;;;;;;;6.70;99.90;;;;;;5144876;27;19942;-69
2022/03/17 00:37:46;;;;;;;;;;;6.70;99.90;;;;;;5144735;27;19985;-69
2022/03/17 00:40:13;;;;;;;;;;;6.70;99.90;;;;;;5144187;27;19956;-69
2022/03/17 00:42:39;;;;;;;;;;;6.70;99.90;;;;;;5144694;27;19935;-69
2022/03/17 00:45:09;;;;;;;;;;;6.80;99.90;;;;;;5144605;27;19934;-69
2022/03/17 00:47:37;;;;;;;;;;;6.70;99.90;;;;;;5135379;27;19920;-69
2022/03/17 00:50:04;;;;;;;;;;;6.70;99.90;;;;;;5144340;27;19919;-69
2022/03/17 00:52:30;;;;;;;;;;;6.70;99.90;;;;;;5144480;27;19934;-70
2022/03/17 00:54:57;;;;;;;;;;;6.70;99.90;;;;;;5130749;27;19919;-69
2022/03/17 00:57:24;;;;;;;;;;;6.60;99.90;;;;;;5143726;27;19923;-70
2022/03/17 00:59:51;;;;;;;;;;;6.70;99.90;;;;;;5144478;27;19926;-69
2022/03/17 01:02:18;;;;;;;;;;;6.70;99.90;;;;;;5144403;27;19923;-69
2022/03/17 01:04:46;;;;;;;;;;;6.60;99.90;;;;;;5144502;27;19928;-69
2022/03/17 01:07:12;;;;;;;;;;;6.60;99.90;;;;;;5144037;27;19926;-69
2022/03/17 01:09:39;;;;;;;;;;;6.60;99.90;;;;;;5144290;27;19919;-71
2022/03/17 01:12:05;;;;;;;;;;;6.60;99.90;;;;;;5144620;27;20096;-69
2022/03/17 01:14:32;;;;;;;;;;;6.60;99.90;;;;;;5144537;27;19926;-69
2022/03/17 01:16:59;;;;;;;;;;;6.60;99.90;;;;;;5143264;27;19920;-69
2022/03/17 01:19:26;;;;;;;;;;;6.60;99.90;;;;;;5144475;27;19926;-70
2022/03/17 01:21:54;;;;;;;;;;;6.60;99.90;;;;;;5144197;28;19919;-69
2022/03/17 01:24:21;;;;;;;;;;;6.50;99.90;;;;;;5144111;28;19920;-69
2022/03/17 01:26:47;;;;;;;;;;;6.50;99.90;;;;;;5128143;27;19919;-69
2022/03/17 01:29:14;;;;;;;;;;;6.50;99.90;;;;;;5144409;28;19926;-70
2022/03/17 01:31:41;;;;;;;;;;;6.50;99.90;;;;;;5143838;28;19926;-69
2022/03/17 01:34:07;;;;;;;;;;;6.50;99.90;;;;;;5144126;28;19926;-71
2022/03/17 01:36:34;;;;;;;;;;;6.40;99.90;;;;;;5143207;28;20122;-70
2022/03/17 01:39:02;;;;;;;;;;;6.50;99.90;;;;;;5144124;27;19919;-68
2022/03/17 01:41:28;;;;;;;;;;;6.50;99.90;;;;;;5143990;28;19920;-69
2022/03/17 01:43:55;;;;;;;;;;;6.50;99.90;;;;;;5144077;28;19927;-69
2022/03/17 01:46:22;;;;;;;;;;;6.50;99.90;;;;;;5143277;28;19919;-69
2022/03/17 01:48:48;;;;;;;;;;;6.50;99.90;;;;;;5143571;27;19919;-69
2022/03/17 01:51:15;;;;;;;;;;;6.60;99.90;;;;;;5145336;27;19919;-69
2022/03/17 01:53:42;;;;;;;;;;;6.50;99.90;;;;;;5147985;27;19928;-69
2022/03/17 01:56:10;;;;;;;;;;;6.50;99.90;;;;;;5147864;27;19926;-69
2022/03/17 01:58:37;;;;;;;;;;;6.40;99.90;;;;;;5148098;27;19942;-69
2022/03/17 02:01:03;;;;;;;;;;;6.50;99.90;;;;;;5147852;27;19926;-69
2022/03/17 02:03:30;;;;;;;;;;;6.50;99.90;;;;;;5147803;27;19926;-69
2022/03/17 02:05:57;;;;;;;;;;;6.50;99.90;;;;;;5147417;27;19927;-69
2022/03/17 02:08:23;;;;;;;;;;;6.50;99.90;;;;;;5147882;27;19931;-70
2022/03/17 02:13:47;;;;;;;;;;;6.50;99.90;;;;;;5084546;28;20119;-69
2022/03/17 02:16:13;;;;;;;;;;;6.40;99.90;;;;;;5124283;27;19919;-69
2022/03/17 02:18:40;;;;;;;;;;;6.50;99.90;;;;;;5147018;27;19926;-70
2022/03/17 02:21:08;;;;;;;;;;;6.50;99.90;;;;;;5146226;27;20233;-69
2022/03/17 02:26:22;;;;;;;;;;;6.50;99.90;;;;;;5140720;27;20198;-68
2022/03/17 02:28:48;;;;;;;;;;;6.50;99.90;;;;;;5146475;27;19919;-69
2022/03/17 02:31:16;;;;;;;;;;;6.60;99.90;;;;;;5147471;27;20002;-70
2022/03/17 02:33:42;;;;;;;;;;;6.60;99.90;;;;;;5147307;27;20157;-69
2022/03/17 02:36:09;;;;;;;;;;;6.60;99.90;;;;;;5146642;27;19991;-70
2022/03/17 02:38:37;;;;;;;;;;;6.60;99.90;;;;;;5146635;27;20229;-69
2022/03/17 02:41:03;;;;;;;;;;;6.50;99.90;;;;;;5146608;27;19982;-70
2022/03/17 02:43:30;;;;;;;;;;;6.50;99.90;;;;;;5147322;27;19920;-69
2022/03/17 02:45:57;;;;;;;;;;;6.50;99.90;;;;;;5146570;27;19934;-69
2022/03/17 02:48:23;;;;;;;;;;;6.50;99.90;;;;;;5146944;27;19923;-69
2022/03/17 02:50:50;;;;;;;;;;;6.40;99.90;;;;;;5146990;27;19926;-70
2022/03/17 02:53:17;;;;;;;;;;;6.40;99.90;;;;;;5147339;27;19926;-69
2022/03/17 02:55:45;;;;;;;;;;;6.40;99.90;;;;;;5146073;27;20211;-69
2022/03/17 02:58:13;;;;;;;;;;;6.40;99.90;;;;;;5146571;27;19925;-69
2022/03/17 03:00:39;;;;;;;;;;;6.40;99.90;;;;;;5147068;27;19923;-69
2022/03/17 03:03:06;;;;;;;;;;;6.40;99.90;;;;;;5132548;27;19924;-69
2022/03/17 03:05:33;;;;;;;;;;;6.30;99.90;;;;;;5146151;27;19971;-69
2022/03/17 03:07:59;;;;;;;;;;;6.30;99.90;;;;;;5146565;27;19919;-68
2022/03/17 03:10:26;;;;;;;;;;;6.30;99.90;;;;;;5146121;27;20226;-69
2022/03/17 03:12:54;;;;;;;;;;;6.30;99.90;;;;;;5146185;27;19965;-69
2022/03/17 03:15:21;;;;;;;;;;;6.30;99.90;;;;;;5145007;27;19927;-70
2022/03/17 03:17:47;;;;;;;;;;;6.30;99.90;;;;;;5145854;27;19919;-69
2022/03/17 03:20:14;;;;;;;;;;;6.30;99.90;;;;;;5144021;27;19964;-70
2022/03/17 03:22:40;;;;;;;;;;;6.20;99.90;;;;;;5146060;27;19919;-69
2022/03/17 03:25:08;;;;;;;;;;;6.20;99.90;;;;;;5145723;27;19920;-69
2022/03/17 03:27:35;;;;;;;;;;;6.20;99.90;;;;;;5142670;27;19927;-69
2022/03/17 03:30:03;;;;;;;;;;;6.20;99.90;;;;;;5146111;27;19926;-69
2022/03/17 03:32:29;;;;;;;;;;;6.20;99.90;;;;;;5146250;27;19942;-69
2022/03/17 03:34:56;;;;;;;;;;;6.20;99.90;;;;;;5145965;27;19930;-69
2022/03/17 03:37:25;;;;;;;;;;;6.20;99.90;;;;;;5145061;27;20196;-69
2022/03/17 03:39:53;;;;;;;;;;;6.20;99.90;;;;;;5145879;27;20254;-69
2022/03/17 03:42:20;;;;;;;;;;;6.20;99.90;;;;;;5146035;27;19926;-70
2022/03/17 03:44:46;;;;;;;;;;;6.20;99.90;;;;;;5142284;27;19923;-69
2022/03/17 03:47:14;;;;;;;;;;;6.20;99.90;;;;;;5133818;27;19931;-69
2022/03/17 03:49:42;;;;;;;;;;;6.20;99.90;;;;;;5145468;27;20210;-70
2022/03/17 03:52:09;;;;;;;;;;;6.20;99.90;;;;;;5146004;27;19973;-69
2022/03/17 03:54:35;;;;;;;;;;;6.10;99.90;;;;;;5145353;27;19927;-70
2022/03/17 03:57:02;;;;;;;;;;;6.20;99.90;;;;;;5145210;27;19919;-69
2022/03/17 03:59:30;;;;;;;;;;;6.10;99.90;;;;;;5145602;27;19919;-69
2022/03/17 04:01:57;;;;;;;;;;;6.10;99.90;;;;;;5145479;27;19927;-69
2022/03/17 04:04:25;;;;;;;;;;;6.10;99.90;;;;;;5128634;27;19925;-69
2022/03/17 04:06:53;;;;;;;;;;;6.00;99.90;;;;;;5144355;27;19919;-68
2022/03/17 04:09:21;;;;;;;;;;;6.00;99.90;;;;;;5145414;27;19920;-70
2022/03/17 04:11:48;;;;;;;;;;;5.90;99.90;;;;;;5145429;27;19926;-69
2022/03/17 04:14:16;;;;;;;;;;;6.00;99.90;;;;;;5145327;27;20100;-69
2022/03/17 04:16:43;;;;;;;;;;;5.90;99.90;;;;;;5144457;27;19920;-73
2022/03/17 04:19:10;;;;;;;;;;;5.90;99.90;;;;;;5148766;27;19923;-69
2022/03/17 04:21:38;;;;;;;;;;;5.90;99.90;;;;;;5158810;27;19927;-70
2022/03/17 04:24:04;;;;;;;;;;;5.90;99.90;;;;;;5145322;27;19919;-70
2022/03/17 04:26:31;;;;;;;;;;;5.90;99.90;;;;;;5144823;27;19919;-69
2022/03/17 04:28:58;;;;;;;;;;;5.90;99.90;;;;;;5144806;27;19928;-69
2022/03/17 04:31:24;;;;;;;;;;;5.80;99.90;;;;;;5145142;27;19920;-69
2022/03/17 04:33:51;;;;;;;;;;;5.80;99.90;;;;;;5144804;27;19942;-69
2022/03/17 04:36:18;;;;;;;;;;;5.80;99.90;;;;;;5144204;27;19926;-69
2022/03/17 04:38:46;;;;;;;;;;;5.80;99.90;;;;;;5144292;27;20199;-69
2022/03/17 04:41:13;;;;;;;;;;;5.80;99.90;;;;;;5144587;27;19919;-69
2022/03/17 04:43:40;;;;;;;;;;;5.80;99.90;;;;;;5145197;27;19919;-70
2022/03/17 04:46:07;;;;;;;;;;;5.80;99.90;;;;;;5143625;27;19943;-69
2022/03/17 04:48:34;;;;;;;;;;;5.70;99.90;;;;;;5144264;27;19920;-69
2022/03/17 04:51:00;;;;;;;;;;;5.70;99.90;;;;;;5145159;27;19920;-69
2022/03/17 04:53:32;;;;;;;;;;;5.70;99.90;;;;;;5144538;27;19919;-69
2022/03/17 04:56:00;;;;;;;;;;;5.70;99.90;;;;;;5134877;27;19958;-69
2022/03/17 04:58:28;;;;;;;;;;;5.70;99.90;;;;;;5135227;27;20207;-69
2022/03/17 05:00:55;;;;;;;;;;;5.70;99.90;;;;;;5142969;27;19930;-69
2022/03/17 05:03:22;;;;;;;;;;;5.70;99.90;;;;;;5138216;27;19941;-69
2022/03/17 05:05:49;;;;;;;;;;;5.70;99.90;;;;;;5143989;27;19925;-69
2022/03/17 05:08:15;;;;;;;;;;;5.60;99.90;;;;;;5140367;27;19919;-70
2022/03/17 05:10:43;;;;;;;;;;;5.60;99.90;;;;;;5144111;27;19930;-69
2022/03/17 05:13:12;;;;;;;;;;;5.70;99.90;;;;;;5143587;27;19923;-70
2022/03/17 05:15:38;;;;;;;;;;;5.60;99.90;;;;;;5143472;27;20149;-69
2022/03/17 05:18:06;;;;;;;;;;;5.60;99.90;;;;;;5143562;27;19927;-69
2022/03/17 05:20:33;;;;;;;;;;;5.60;99.90;;;;;;5144657;27;19960;-69
2022/03/17 05:22:59;;;;;;;;;;;5.60;99.90;;;;;;5132630;28;19965;-72
2022/03/17 05:25:26;;;;;;;;;;;5.60;99.90;;;;;;5141270;27;19919;-69
2022/03/17 05:28:02;;;;;;;;;;;5.60;99.90;;;;;;5146126;27;19919;-70
2022/03/17 05:30:30;;;;;;;;;;;5.60;99.90;;;;;;5131046;28;19923;-68
2022/03/17 05:32:57;;;;;;;;;;;5.50;99.90;;;;;;5144467;28;20122;-69
2022/03/17 05:35:27;;;;;;;;;;;5.50;99.90;;;;;;5141683;28;19933;-69
2022/03/17 05:37:54;;;;;;;;;;;5.50;99.90;;;;;;5144644;27;19921;-69
2022/03/17 05:40:21;;;;;;;;;;;5.40;99.90;;;;;;5144951;28;19964;-69
2022/03/17 05:42:49;;;;;;;;;;;5.40;99.90;;;;;;5144476;28;20367;-70
2022/03/17 05:45:16;;;;;;;;;;;5.40;99.90;;;;;;5144539;28;19923;-69
2022/03/17 05:47:45;;;;;;;;;;;5.40;99.90;;;;;;5144780;27;20145;-69
2022/03/17 05:50:13;;;;;;;;;;;5.40;99.90;;;;;;5144724;28;19954;-69
2022/03/17 05:52:47;;;;;;;;;;;5.40;99.90;;;;;;5144326;28;19972;-68
2022/03/17 05:55:15;;;;;;;;;;;5.40;99.90;;;;;;5143112;28;19920;-69
2022/03/17 05:57:42;;;;;;;;;;;5.40;99.90;;;;;;5143525;27;19941;-70
2022/03/17 06:00:10;;;;;;;;;;;5.50;99.90;;;;;;5143143;28;19919;-69
2022/03/17 06:02:37;;;;;;;;;;;5.50;99.90;;;;;;5142712;28;19919;-70
2022/03/17 06:05:06;;;;;;;;;;;5.50;99.90;;;;;;5142689;28;19919;-69
2022/03/17 06:07:36;;;;;;;;;;;5.50;99.90;;;;;;5142543;28;19923;-69
2022/03/17 06:10:03;;;;;;;;;;;5.40;99.90;;;;;;5144000;28;19930;-69
2022/03/17 06:12:30;;;;;;;;;;;5.50;99.90;;;;;;5144005;28;19919;-69
2022/03/17 06:14:57;;;;;;;;;;;5.50;99.90;;;;;;5143354;28;19919;-67
2022/03/17 06:17:24;;;;;;;;;;;5.50;99.90;;;;;;5142878;28;19920;-70
2022/03/17 06:19:51;;;;;;;;;;;5.50;99.90;;;;;;5144093;28;19920;-73
2022/03/17 06:22:18;;;;;;;;;;;5.50;99.90;;;;;;5144130;28;20211;-71
2022/03/17 06:24:46;;;;;;;;;;;5.50;99.90;;;;;;5144594;28;20236;-71
2022/03/17 06:27:12;;;;;;;;;;;5.60;99.90;;;;;;5131926;27;20111;-70
2022/03/17 06:29:39;;;;;;;;;;;5.60;99.90;;;;;;5143569;28;20145;-69
2022/03/17 06:32:07;;;;;;;;;;;5.60;99.90;;;;;;5140595;28;20235;-71
2022/03/17 06:34:34;;;;;;;;;;;5.60;99.90;;;;;;5143356;28;19919;-70
2022/03/17 06:37:00;;;;;;;;;;;5.60;99.90;;;;;;5142532;27;19926;-69
2022/03/17 06:39:28;;;;;;;;;;;5.70;99.90;;;;;;5143324;27;19927;-70
2022/03/17 06:41:55;;;;;;;;;;;5.60;99.90;;;;;;5143446;27;19987;-70
2022/03/17 06:44:21;;;;;;;;;;;5.70;99.90;;;;;;5146214;27;19919;-70
2022/03/17 06:46:48;;;;;;;;;;;5.70;99.90;;;;;;5139434;27;19956;-72
2022/03/17 06:49:14;;;;;;;;;;;5.80;99.90;;;;;;5141886;27;19928;-70
2022/03/17 06:51:41;;;;;;;;;;;5.90;99.90;;;;;;5144672;27;19928;-69
2022/03/17 06:54:07;;;;;;;;;;;5.90;99.90;;;;;;5146124;27;19925;-70
2022/03/17 06:56:35;;;;;;;;;;;6.00;99.90;;;;;;5144490;27;20178;-70
2022/03/17 06:59:02;;;;;;;;;;;6.10;99.90;;;;;;5139341;27;19942;-69
2022/03/17 07:01:28;;;;;;;;;;;6.10;99.90;;;;;;5142322;27;19919;-70
2022/03/17 07:03:55;;;;;;;;;;;6.10;99.90;;;;;;5145283;27;19931;-69
2022/03/17 07:06:21;;;;;;;;;;;6.20;99.90;;;;;;5140303;27;19925;-70
2022/03/17 07:08:48;;;;;;;;;;;6.30;99.90;;;;;;5141276;27;19919;-70
2022/03/17 07:11:15;;;;;;;;;;;6.40;99.90;;;;;;5140357;27;19926;-70
2022/03/17 07:13:43;;;;;;;;;;;6.50;99.90;;;;;;5145668;27;19931;-70
2022/03/17 07:16:10;;;;;;;;;;;6.50;99.90;;;;;;5144740;27;19949;-70
2022/03/17 07:18:37;;;;;;;;;;;6.60;99.90;;;;;;5145057;27;20183;-70
2022/03/17 07:21:05;;;;;;;;;;;6.50;99.90;;;;;;5136524;27;20193;-70
2022/03/17 07:23:32;;;;;;;;;;;6.50;99.90;;;;;;5145573;27;19920;-71
2022/03/17 07:25:59;;;;;;;;;;;6.60;99.90;;;;;;5143759;27;19941;-68
2022/03/17 07:28:25;;;;;;;;;;;6.70;99.90;;;;;;5142944;27;19920;-69
2022/03/17 07:30:53;;;;;;;;;;;6.70;99.90;;;;;;5145133;27;19954;-71
2022/03/17 07:33:20;;;;;;;;;;;6.80;99.90;;;;;;5139473;27;20238;-71
2022/03/17 07:35:47;;;;;;;;;;;6.70;99.90;;;;;;5135610;27;20207;-70
2022/03/17 07:38:13;;;;;;;;;;;6.80;99.90;;;;;;5135080;27;19926;-70
2022/03/17 07:40:40;;;;;;;;;;;6.80;99.90;;;;;;5136934;27;20209;-71
2022/03/17 07:43:07;;;;;;;;;;;6.90;99.90;;;;;;5132506;27;19919;-70
2022/03/17 07:45:34;;;;;;;;;;;6.90;99.90;;;;;;5135384;27;19934;-69
2022/03/17 07:48:05;;;;;;;;;;;6.90;99.90;;;;;;5143765;27;19920;-70
2022/03/17 07:50:32;;;;;;;;;;;7.00;99.90;;;;;;5145790;27;20087;-71
2022/03/17 07:52:59;;;;;;;;;;;7.00;99.90;;;;;;5136467;27;19920;-70
2022/03/17 07:55:25;;;;;;;;;;;7.10;99.90;;;;;;5140241;27;19926;-70
2022/03/17 07:57:53;;;;;;;;;;;7.10;99.90;;;;;;5137566;27;20145;-70
2022/03/17 08:00:19;;;;;;;;;;;7.20;99.90;;;;;;5145241;27;19919;-70
2022/03/17 08:02:46;;;;;;;;;;;7.30;99.90;;;;;;5144754;27;19919;-71
2022/03/17 08:05:14;;;;;;;;;;;7.30;99.90;;;;;;5144892;27;19920;-70
2022/03/17 08:07:41;;;;;;;;;;;7.30;99.90;;;;;;5138421;27;19926;-70
2022/03/17 08:10:08;;;;;;;;;;;7.40;99.90;;;;;;5144581;27;19931;-70
2022/03/17 08:12:35;;;;;;;;;;;7.40;99.90;;;;;;5145556;27;19926;-70
2022/03/17 08:15:02;;;;;;;;;;;7.40;99.90;;;;;;5145319;27;20169;-69
2022/03/17 08:17:29;;;;;;;;;;;7.50;99.90;;;;;;5139817;27;19919;-70
2022/03/17 08:19:57;;;;;;;;;;;7.50;99.90;;;;;;5138934;27;20237;-70
2022/03/17 08:22:25;;;;;;;;;;;7.60;99.90;;;;;;5140277;27;19927;-69
2022/03/17 08:24:52;;;;;;;;;;;7.60;99.90;;;;;;5145631;27;19919;-70
2022/03/17 08:27:18;;;;;;;;;;;7.70;99.90;;;;;;5143941;27;20220;-70
2022/03/17 08:29:46;;;;;;;;;;;7.60;99.90;;;;;;5145185;27;20203;-70
2022/03/17 08:32:13;;;;;;;;;;;7.70;99.90;;;;;;5144962;27;19926;-71
2022/03/17 08:34:39;;;;;;;;;;;7.70;99.90;;;;;;5145144;27;20316;-70
2022/03/17 08:37:06;;;;;;;;;;;7.80;99.90;;;;;;5144273;27;19950;-70
2022/03/17 08:39:34;;;;;;;;;;;7.90;99.90;;;;;;5144676;27;19930;-70
2022/03/17 08:42:01;;;;;;;;;;;7.90;99.90;;;;;;5144785;27;19920;-69
2022/03/17 08:44:27;;;;;;;;;;;7.90;99.90;;;;;;5145286;27;19920;-75
2022/03/17 08:49:38;;;;;;;;;;;8.00;99.90;;;;;;5144769;27;20148;-70
2022/03/17 08:52:07;;;;;;;;;;;8.00;99.90;;;;;;5144759;27;19919;-71
2022/03/17 08:54:35;;;;;;;;;;;8.10;99.90;;;;;;5144436;27;20207;-70
2022/03/17 08:57:03;;;;;;;;;;;8.10;99.90;;;;;;5143937;27;20135;-70
2022/03/17 08:59:31;;;;;;;;;;;8.20;99.90;;;;;;5144813;27;19934;-69
2022/03/17 09:01:57;;;;;;;;;;;8.20;99.90;;;;;;5143846;27;19989;-70
2022/03/17 09:04:24;;;;;;;;;;;8.20;99.90;;;;;;5144110;27;20111;-70
2022/03/17 09:06:51;;;;;;;;;;;8.30;99.90;;;;;;5143511;27;19955;-70
2022/03/17 09:09:17;;;;;;;;;;;8.30;99.90;;;;;;5144715;27;19926;-70
2022/03/17 09:11:47;;;;;;;;;;;8.30;99.90;;;;;;5144426;27;19923;-70
2022/03/17 09:14:14;;;;;;;;;;;8.30;99.90;;;;;;5144345;27;19927;-70
2022/03/17 09:16:41;;;;;;;;;;;8.30;99.90;;;;;;5143709;27;20268;-70
2022/03/17 09:19:07;;;;;;;;;;;8.30;99.90;;;;;;5143674;27;19923;-70
2022/03/17 09:21:35;;;;;;;;;;;8.40;99.90;;;;;;5144136;27;19919;-71
2022/03/17 09:24:01;;;;;;;;;;;8.40;99.90;;;;;;5144407;28;19950;-70
2022/03/17 09:26:28;;;;;;;;;;;8.40;99.90;;;;;;5143525;28;19919;-70
2022/03/17 09:28:56;;;;;;;;;;;8.40;99.90;;;;;;5144235;27;19919;-71
2022/03/17 09:31:23;;;;;;;;;;;8.40;99.90;;;;;;5144638;28;19920;-71
2022/03/17 09:33:50;;;;;;;;;;;8.40;99.90;;;;;;5144638;28;19919;-71
2022/03/17 09:36:17;;;;;;;;;;;8.40;99.90;;;;;;5143740;28;19926;-71
2022/03/17 09:38:43;;;;;;;;;;;8.50;99.90;;;;;;5144919;27;19919;-71
2022/03/17 09:41:24;;;;;;;;;;;8.50;99.90;;;;;;5144394;28;19965;-71
2022/03/17 09:43:51;;;;;;;;;;;8.50;99.90;;;;;;5133676;28;19919;-71
2022/03/17 09:46:21;;;;;;;;;;;8.60;99.90;;;;;;5144275;28;19919;-70
2022/03/17 09:48:49;;;;;;;;;;;8.60;99.90;;;;;;5144409;28;19965;-70
2022/03/17 09:51:17;;;;;;;;;;;8.70;99.90;;;;;;5144319;28;19978;-70
2022/03/17 09:53:44;;;;;;;;;;;8.60;99.90;;;;;;5144272;28;19928;-70
2022/03/17 09:56:10;;;;;;;;;;;8.70;99.90;;;;;;5143397;28;19919;-70
2022/03/17 09:58:37;;;;;;;;;;;8.70;99.90;;;;;;5143773;28;19934;-70
2022/03/17 10:01:05;;;;;;;;;;;8.70;99.90;;;;;;5144062;28;19931;-70
2022/03/17 10:03:34;;;;;;;;;;;8.70;99.90;;;;;;5144372;28;19926;-70
2022/03/17 10:06:05;;;;;;;;;;;8.70;99.90;;;;;;5143523;28;19920;-71
2022/03/17 10:08:33;;;;;;;;;;;8.70;99.90;;;;;;5144096;28;19920;-70
2022/03/17 10:11:00;;;;;;;;;;;8.70;99.90;;;;;;5143963;28;19919;-70
2022/03/17 10:13:28;;;;;;;;;;;8.80;99.90;;;;;;5146813;27;19927;-70
2022/03/17 10:16:10;;;;;;;;;;;8.80;99.90;;;;;;5147301;27;19957;-70
2022/03/17 10:18:38;;;;;;;;;;;8.80;99.90;;;;;;5144990;27;20014;-71
2022/03/17 10:21:06;;;;;;;;;;;8.90;99.90;;;;;;5147467;27;19919;-71
2022/03/17 10:23:32;;;;;;;;;;;8.80;99.90;;;;;;5147590;27;19941;-72
2022/03/17 10:25:59;;;;;;;;;;;8.80;99.90;;;;;;5145686;27;19925;-70
2022/03/17 10:28:26;;;;;;;;;;;8.80;99.90;;;;;;5146468;27;19934;-70
2022/03/17 10:31:02;;;;;;;;;;;8.80;99.90;;;;;;5147540;27;19927;-70
2022/03/17 10:33:29;;;;;;;;;;;8.90;99.90;;;;;;5147766;27;19927;-71
2022/03/17 10:36:12;;;;;;;;;;;8.90;99.90;;;;;;5146874;27;19964;-71
2022/03/17 10:38:42;;;;;;;;;;;9.00;99.90;;;;;;5147358;27;19924;-71
2022/03/17 10:41:11;;;;;;;;;;;8.90;99.90;;;;;;5147431;27;20123;-71
2022/03/17 10:43:39;;;;;;;;;;;8.90;99.90;;;;;;5147186;27;19919;-71
2022/03/17 10:46:06;;;;;;;;;;;8.90;99.90;;;;;;5146763;27;19964;-71
2022/03/17 10:48:33;;;;;;;;;;;9.00;99.90;;;;;;5136681;27;19928;-71
2022/03/17 10:51:01;;;;;;;;;;;9.00;99.90;;;;;;5146820;27;19920;-70
2022/03/17 10:53:28;;;;;;;;;;;9.10;99.90;;;;;;5147294;27;19920;-71
2022/03/17 10:56:09;;;;;;;;;;;9.10;99.90;;;;;;5146170;27;19927;-71
2022/03/17 10:58:41;;;;;;;;;;;9.10;99.90;;;;;;5147069;27;19926;-70
2022/03/17 11:01:07;;;;;;;;;;;9.10;99.90;;;;;;5147018;27;19927;-70
2022/03/17 11:03:34;;;;;;;;;;;9.20;99.90;;;;;;5146788;27;19920;-71
2022/03/17 11:06:03;;;;;;;;;;;9.20;99.90;;;;;;5146201;27;19949;-71
2022/03/17 11:08:31;;;;;;;;;;;9.20;99.90;;;;;;5146856;27;20122;-70
2022/03/17 11:10:58;;;;;;;;;;;9.20;99.90;;;;;;5146854;27;20118;-70
2022/03/17 11:13:26;;;;;;;;;;;9.30;99.90;;;;;;5146974;27;19919;-71
2022/03/17 11:15:56;;;;;;;;;;;9.30;99.90;;;;;;5145897;27;19920;-70
2022/03/17 11:18:24;;;;;;;;;;;9.40;99.90;;;;;;5146498;27;19931;-70
2022/03/17 11:21:10;;;;;;;;;;;9.40;99.90;;;;;;5146454;27;20206;-71
2022/03/17 11:23:54;;;;;;;;;;;9.40;99.90;;;;;;5145557;27;19925;-70
2022/03/17 11:26:22;;;;;;;;;;;9.40;99.90;;;;;;5145626;27;20122;-70
2022/03/17 11:28:49;;;;;;;;;;;9.40;99.90;;;;;;5124101;28;19935;-70
2022/03/17 11:31:19;;;;;;;;;;;9.50;99.90;;;;;;5130557;27;20279;-71
2022/03/17 11:33:46;;;;;;;;;;;9.40;99.90;;;;;;5146490;27;19919;-70
2022/03/17 11:36:19;;;;;;;;;;;9.50;99.90;;;;;;5145549;27;19926;-71
2022/03/17 11:39:06;;;;;;;;;;;9.50;99.90;;;;;;5145890;27;19981;-70
2022/03/17 11:41:40;;;;;;;;;;;9.60;99.90;;;;;;5145934;27;20225;-70
2022/03/17 11:44:07;;;;;;;;;;;9.50;99.90;;;;;;5146420;27;19926;-70
2022/03/17 11:46:38;;;;;;;;;;;9.60;99.90;;;;;;5145473;27;19919;-70
2022/03/17 11:49:18;;;;;;;;;;;9.60;99.90;;;;;;5146015;27;20100;-71
2022/03/17 11:51:52;;;;;;;;;;;9.70;99.90;;;;;;5146035;27;19928;-71
2022/03/17 11:54:20;;;;;;;;;;;9.70;99.90;;;;;;5146133;27;19919;-70
2022/03/17 11:56:47;;;;;;;;;;;9.60;99.90;;;;;;5145293;27;19942;-70
2022/03/17 11:59:14;;;;;;;;;;;9.50;99.90;;;;;;5145909;27;19919;-70
2022/03/17 12:01:42;;;;;;;;;;;9.60;99.90;;;;;;5145600;27;19925;-70
2022/03/17 12:04:09;;;;;;;;;;;9.60;99.90;;;;;;5145506;27;20145;-70
2022/03/17 12:06:36;;;;;;;;;;;9.70;99.90;;;;;;5145309;27;20011;-70
2022/03/17 12:09:04;;;;;;;;;;;9.70;99.90;;;;;;5145529;27;19931;-71
2022/03/17 12:11:33;;;;;;;;;;;9.70;99.90;;;;;;5145608;27;19919;-71
2022/03/17 12:14:17;;;;;;;;;;;9.70;99.90;;;;;;5143178;27;20182;-71
2022/03/17 12:16:46;;;;;;;;;;;9.70;99.90;;;;;;5142462;27;19927;-70
2022/03/17 12:19:29;;;;;;;;;;;9.70;99.90;;;;;;5143433;27;20134;-70
2022/03/17 12:22:09;;;;;;;;;;;9.70;99.90;;;;;;5143695;27;19923;-70
2022/03/17 12:24:39;;;;;;;;;;;9.80;99.90;;;;;;5144598;27;19982;-70
2022/03/17 12:27:10;;;;;;;;;;;9.80;99.90;;;;;;5142610;27;19919;-70
2022/03/17 12:29:37;;;;;;;;;;;10.00;99.90;;;;;;5145198;27;19941;-70
2022/03/17 12:32:08;;;;;;;;;;;10.00;99.90;;;;;;5144915;27;19965;-70
2022/03/17 12:34:35;;;;;;;;;;;10.00;99.90;;;;;;5141339;27;19932;-70
2022/03/17 12:37:02;;;;;;;;;;;10.10;99.90;;;;;;5134597;27;20107;-70
2022/03/17 12:39:29;;;;;;;;;;;10.10;99.90;;;;;;5143919;27;19923;-70
2022/03/17 12:41:56;;;;;;;;;;;10.10;99.90;;;;;;5145159;27;19919;-70
2022/03/17 12:44:25;;;;;;;;;;;10.10;99.90;;;;;;5141586;27;19934;-70
2022/03/17 12:46:52;;;;;;;;;;;10.10;99.90;;;;;;5132412;27;20203;-70
2022/03/17 12:49:18;;;;;;;;;;;10.20;99.90;;;;;;5139581;27;19925;-70
2022/03/17 12:51:45;;;;;;;;;;;10.10;99.90;;;;;;5143912;27;19926;-70
2022/03/17 12:54:13;;;;;;;;;;;10.10;99.90;;;;;;5143820;27;19926;-70
2022/03/17 12:56:46;;;;;;;;;;;10.20;99.90;;;;;;5146937;27;19923;-71
2022/03/17 12:59:15;;;;;;;;;;;10.20;99.90;;;;;;5143525;27;19919;-70
2022/03/17 13:01:43;;;;;;;;;;;10.20;99.90;;;;;;5137554;27;19923;-71
2022/03/17 13:04:12;;;;;;;;;;;10.20;99.90;;;;;;5134852;27;19985;-69
2022/03/17 13:06:54;;;;;;;;;;;10.20;99.90;;;;;;5142699;27;20117;-70
2022/03/17 13:09:21;;;;;;;;;;;10.20;99.90;;;;;;5145335;27;19923;-71
2022/03/17 13:14:47;;;;;;;;;;;10.30;99.90;;;;;;5105752;28;19916;-70
2022/03/17 13:17:16;;;;;;;;;;;10.30;99.90;;;;;;5101084;28;20228;-70
2022/03/17 13:19:45;;;;;;;;;;;10.30;99.90;;;;;;5123341;27;19930;-70
2022/03/17 13:22:12;;;;;;;;;;;10.30;99.90;;;;;;5135812;27;19919;-71
2022/03/17 13:24:39;;;;;;;;;;;10.30;99.90;;;;;;5143980;27;20171;-70
2022/03/17 13:27:05;;;;;;;;;;;10.30;99.90;;;;;;5142733;28;19927;-71
2022/03/17 13:29:34;;;;;;;;;;;10.30;99.90;;;;;;5143924;28;19928;-71
2022/03/17 13:32:03;;;;;;;;;;;10.30;99.90;;;;;;5143874;28;19986;-70
2022/03/17 13:34:33;;;;;;;;;;;10.30;99.90;;;;;;5140468;28;19920;-71
2022/03/17 13:37:00;;;;;;;;;;;10.30;99.90;;;;;;5134870;27;19919;-71
2022/03/17 13:39:32;;;;;;;;;;;10.40;99.90;;;;;;5143835;28;19919;-70
2022/03/17 13:42:02;;;;;;;;;;;10.40;99.90;;;;;;5143330;28;19998;-71
2022/03/17 13:44:44;;;;;;;;;;;10.40;99.90;;;;;;5139488;28;20096;-71
2022/03/17 13:47:12;;;;;;;;;;;10.40;99.90;;;;;;5134424;27;19920;-71
2022/03/17 13:49:40;;;;;;;;;;;10.40;99.90;;;;;;5139892;27;19920;-71
2022/03/17 13:52:10;;;;;;;;;;;10.50;99.90;;;;;;5139319;27;19920;-71
2022/03/17 13:54:40;;;;;;;;;;;10.50;99.90;;;;;;5147966;27;19925;-71
2022/03/17 13:57:06;;;;;;;;;;;10.40;99.90;;;;;;5141019;27;19927;-71
2022/03/17 13:59:33;;;;;;;;;;;10.40;99.90;;;;;;5143827;27;19920;-70
2022/03/17 14:02:12;;;;;;;;;;;10.40;99.90;;;;;;5141728;27;19919;-69
2022/03/17 14:04:52;;;;;;;;;;;10.50;99.90;;;;;;5139694;27;19919;-71
2022/03/17 14:07:18;;;;;;;;;;;10.40;99.90;;;;;;5146559;27;19919;-70
2022/03/17 14:09:45;;;;;;;;;;;10.40;99.90;;;;;;5143785;27;20195;-71
2022/03/17 14:12:11;;;;;;;;;;;10.40;99.90;;;;;;5143315;27;19927;-71
2022/03/17 14:14:38;;;;;;;;;;;10.40;99.90;;;;;;5147171;27;19923;-71
2022/03/17 14:17:05;;;;;;;;;;;10.40;99.90;;;;;;5142144;27;20111;-70
2022/03/17 14:19:31;;;;;;;;;;;10.40;99.90;;;;;;5146759;27;20254;-71
2022/03/17 14:24:44;;;;;;;;;;;10.30;99.90;;;;;;5139341;27;19927;-71
2022/03/17 14:27:11;;;;;;;;;;;10.30;99.90;;;;;;5137016;27;19934;-70
2022/03/17 14:29:37;;;;;;;;;;;10.30;99.90;;;;;;5146563;27;19919;-71
2022/03/17 14:32:05;;;;;;;;;;;10.30;99.90;;;;;;5137767;27;19928;-71
2022/03/17 14:34:32;;;;;;;;;;;10.30;99.90;;;;;;5131504;27;19920;-71
2022/03/17 14:37:01;;;;;;;;;;;10.30;99.90;;;;;;5140063;27;19927;-71
2022/03/17 14:39:29;;;;;;;;;;;10.40;99.90;;;;;;5142726;27;19927;-71
2022/03/17 14:41:55;;;;;;;;;;;10.40;99.90;;;;;;5146285;27;19923;-71
2022/03/17 14:44:22;;;;;;;;;;;10.30;99.90;;;;;;5146856;27;19926;-70
2022/03/17 14:46:51;;;;;;;;;;;10.40;99.90;;;;;;5137716;27;19920;-71
2022/03/17 14:49:18;;;;;;;;;;;10.40;99.90;;;;;;5139351;27;19934;-71